Aviation Digital Data Service (ADDS)

Output produced by METARs form (2343 UTC 24 February 2018)
found at http://aviationweather.gov/adds/metars/
 
KGED 242254Z AUTO 07008KT 10SM OVC020 10/08 A3014 RMK AO2 RAE23 SLP206 P0000 T01000078